Detroit, MI

3:05 AM EDT on October 26, 2014 (GMT -0400)
Detroit City | Change Station
CLOSE
Current Station
Airport
Location: Detroit,
Elevation: 623 ft
Nearby Weather Stations

Elev 623 ft 42.41 °N, 83.01 °W | Updated 12 minutes ago

Clear
Clear
53 °F
Feels Like 53 °F
N
6
Wind Variable Wind from WNW

Today
High -- | Low -- °F
--% Chance of Precip.
Yesterday
High -- | Low -- °F
Precip. -- in
7:58 AM 6:33 PM
Waxing Crescent, 6% visible
Pressure 29.84 in
Visibility 10.0 miles
Clouds Clear
Dew Point 31 °F
Humidity 43%
Rainfall 0.00 in
Snow Depth Not available.
UV 0 out of 12
Pollen .10 out of 12
Ozone Good
PM2.5 Good
Flu Activity Sporadic
METAR KDET 260653Z 30005KT 10SM CLR 12/M01 A2984 RMK AO2 SLP105 T01171006

More Conditions Fewer Conditions

Pressure 29.84 in
Visibility 10.0 miles
Clouds Clear
Dew Point 31 °F
Humidity 43%
Rainfall 0.00 in
Snow Depth Not available.
UV 0 out of 12
Pollen .10 out of 12
Ozone Good
PM2.5 Good
Flu Activity Sporadic
METAR KDET 260653Z 30005KT 10SM CLR 12/M01 A2984 RMK AO2 SLP105 T01171006

More Conditions Fewer Conditions

10-Day Weather Forecast

Almanac

Astronomy

Oct. 26, 2014 Rise Set
Actual Time 7:58 AM EDT 6:33 PM EDT
Civil Twilight 7:29 AM EDT 7:02 PM EDT
Nautical Twilight 6:56 AM EDT 7:35 PM EDT
Astronomical Twilight 6:23 AM EDT 8:07 PM EDT
Moon 10:37 AM EDT 8:41 PM EDT
Length of Visible Light 11h 32m
Length of Day
10h 35m
Tomorrow will be 2m 38s shorter.
Waxing Crescent, 6% of the Moon is Illuminated
Today
Waxing Crescent
Oct 30
First Quarter
Nov 6
Full
Nov 14
Last Quarter
Nov 22
New

Today's Extremes

State Highs State Lows

Community

WunderPhotos

Upload Photos

1,765,115 photos uploaded!

Nearby

Air Quality

  Air Quality AQ Index Pollutant
Yesterday Good
PM10
Yesterday Good
OZONE
Current Good
PM2.5
Current Good
OZONE
Sunday Good
PM2.5
Monday Moderate
PM2.5

Snow Depth

Station Depth Elevation
No new snow has been reported.

Earthquake Activity

City Distance Mag. Time & Date
No recent earthquake activity has been reported nearby.
Minimum magnitude displayed is 2.5.

Coastal Water Temperatures

Place Temperature
Marblehead, OH 54.0 °F

Nearby Weather Stations